createdAt,value
2023-02-13T00:01:54.349Z,19.15
2023-02-13T00:04:20.820Z,17.35
2023-02-13T00:06:47.976Z,18.92
2023-02-13T00:09:15.056Z,19.52
2023-02-13T00:11:41.609Z,19.60
2023-02-13T00:14:08.519Z,19.20
2023-02-13T00:16:35.213Z,19.10
2023-02-13T00:19:01.715Z,19.27
2023-02-13T00:21:28.312Z,21.45
2023-02-13T00:23:54.770Z,20.67
2023-02-13T00:26:21.212Z,19.38
2023-02-13T00:28:47.806Z,21.00
2023-02-13T00:31:17.221Z,20.42
2023-02-13T00:33:44.445Z,18.63
2023-02-13T00:36:15.853Z,20.27
2023-02-13T00:38:42.705Z,22.05
2023-02-13T00:41:10.145Z,19.58
2023-02-13T00:43:37.350Z,19.73
2023-02-13T00:46:04.832Z,21.45
2023-02-13T00:48:32.933Z,20.38
2023-02-13T00:51:00.059Z,20.20
2023-02-13T00:53:27.352Z,21.23
2023-02-13T00:55:53.922Z,19.42
2023-02-13T00:58:21.055Z,20.90
2023-02-13T01:00:47.696Z,21.08
2023-02-13T01:03:17.745Z,20.05
2023-02-13T01:05:44.688Z,22.00
2023-02-13T01:08:12.305Z,22.05
2023-02-13T01:10:40.446Z,20.25
2023-02-13T01:13:07.730Z,20.27
2023-02-13T01:15:34.547Z,21.73
2023-02-13T01:18:01.427Z,20.75
2023-02-13T01:20:29.025Z,20.58
2023-02-13T01:22:56.137Z,21.23
2023-02-13T01:25:23.198Z,20.90
2023-02-13T01:27:50.007Z,19.38
2023-02-13T01:30:18.216Z,21.33
2023-02-13T01:32:46.015Z,20.63
2023-02-13T01:35:13.851Z,19.80
2023-02-13T01:37:41.037Z,19.27
2023-02-13T01:40:10.734Z,19.95
2023-02-13T01:42:37.324Z,22.08
2023-02-13T01:45:18.743Z,23.50
2023-02-13T01:47:49.921Z,21.38
2023-02-13T01:50:24.314Z,20.70
2023-02-13T01:52:57.067Z,23.73
2023-02-13T01:55:26.236Z,22.55
2023-02-13T01:58:07.980Z,19.95
2023-02-13T02:00:35.783Z,21.95
2023-02-13T02:03:11.099Z,20.77
2023-02-13T02:08:08.337Z,18.90
2023-02-13T02:10:35.277Z,20.80
2023-02-13T02:13:12.820Z,19.33
2023-02-13T02:15:40.748Z,20.88
2023-02-13T02:18:18.936Z,19.17
2023-02-13T02:21:10.700Z,19.35
2023-02-13T02:24:08.000Z,20.23
2023-02-13T02:26:53.299Z,17.60
2023-02-13T02:29:52.112Z,18.90
2023-02-13T02:32:57.595Z,18.85
2023-02-13T02:35:55.147Z,17.42
2023-02-13T02:38:43.809Z,18.13
2023-02-13T02:41:50.193Z,18.70
2023-02-13T02:44:33.780Z,16.33
2023-02-13T02:47:50.681Z,15.52
2023-02-13T02:52:57.062Z,10.63
2023-02-13T02:55:32.982Z,8.35
2023-02-13T02:58:38.452Z,9.82
2023-02-13T03:01:28.622Z,8.27
2023-02-13T03:04:16.014Z,8.63
2023-02-13T03:06:45.221Z,7.45
2023-02-13T03:09:44.047Z,8.20
2023-02-13T03:12:32.322Z,8.55
2023-02-13T03:14:58.877Z,8.55
2023-02-13T03:17:44.080Z,7.63
2023-02-13T03:20:39.461Z,7.57
2023-02-13T03:23:30.402Z,7.15
2023-02-13T03:26:18.595Z,7.07
2023-02-13T03:29:20.457Z,7.50
2023-02-13T03:32:01.567Z,6.75
2023-02-13T03:34:54.455Z,7.15
2023-02-13T03:37:49.447Z,5.35
2023-02-13T03:40:22.218Z,7.70
2023-02-13T03:42:56.326Z,6.50
2023-02-13T03:45:47.884Z,6.68
2023-02-13T03:48:36.763Z,7.63
2023-02-13T03:51:05.149Z,7.25
2023-02-13T03:53:34.740Z,7.65
2023-02-13T03:56:21.895Z,6.32
2023-02-13T03:59:12.104Z,6.70
2023-02-13T04:01:39.677Z,4.85
2023-02-13T04:04:13.532Z,6.80
2023-02-13T04:07:01.623Z,6.55
2023-02-13T04:09:30.228Z,4.93
2023-02-13T04:11:59.276Z,6.30
2023-02-13T04:14:34.772Z,6.80
2023-02-13T04:17:19.979Z,6.57
2023-02-13T04:19:46.579Z,6.90
2023-02-13T04:22:13.463Z,7.05
2023-02-13T04:24:40.054Z,6.88
2023-02-13T04:27:06.509Z,6.65
2023-02-13T04:29:32.976Z,7.00
2023-02-13T04:31:59.491Z,7.00
2023-02-13T04:34:26.080Z,7.05
2023-02-13T04:36:52.547Z,7.03
2023-02-13T04:39:19.197Z,6.30
2023-02-13T04:41:45.759Z,5.88
2023-02-13T04:44:12.505Z,5.93
2023-02-13T04:46:39.036Z,5.85
2023-02-13T04:49:05.814Z,6.80
2023-02-13T04:51:32.350Z,1.60
2023-02-13T04:53:58.813Z,2.90
2023-02-13T04:56:25.332Z,6.38
2023-02-13T04:58:51.801Z,4.35
2023-02-13T05:01:19.229Z,6.43
2023-02-13T05:03:45.831Z,5.72
2023-02-13T05:06:12.358Z,5.60
2023-02-13T05:08:38.902Z,6.28
2023-02-13T05:11:05.878Z,5.82
2023-02-13T05:13:32.825Z,6.05
2023-02-13T05:15:59.689Z,4.80
2023-02-13T05:18:26.249Z,5.95
2023-02-13T05:21:12.980Z,5.85
2023-02-13T05:23:39.552Z,4.40
2023-02-13T05:26:06.199Z,6.18
2023-02-13T05:28:51.143Z,5.78
2023-02-13T05:31:17.848Z,6.97
2023-02-13T05:33:44.411Z,5.97
2023-02-13T05:36:10.907Z,6.60
2023-02-13T05:38:37.549Z,6.50
2023-02-13T05:41:04.233Z,6.60
2023-02-13T05:43:30.867Z,6.53
2023-02-13T05:46:09.082Z,5.60
2023-02-13T05:48:36.143Z,5.97
2023-02-13T05:51:02.697Z,6.68
2023-02-13T05:53:29.886Z,6.53
2023-02-13T05:55:56.695Z,6.32
2023-02-13T05:58:23.357Z,5.72
2023-02-13T06:00:49.889Z,6.68
2023-02-13T06:03:16.399Z,7.90
2023-02-13T06:05:42.864Z,6.72
2023-02-13T06:08:09.341Z,6.13
2023-02-13T06:10:35.839Z,7.55
2023-02-13T06:13:02.317Z,5.43
2023-02-13T06:15:28.851Z,7.57
2023-02-13T06:17:55.344Z,7.88
2023-02-13T06:20:21.872Z,7.78
2023-02-13T06:22:52.440Z,8.07
2023-02-13T06:25:19.989Z,7.35
2023-02-13T06:27:46.703Z,8.15
2023-02-13T06:30:14.270Z,7.65
2023-02-13T06:32:40.851Z,6.57
2023-02-13T06:35:08.383Z,6.65
2023-02-13T06:37:35.157Z,8.05
2023-02-13T06:40:01.679Z,6.82
2023-02-13T06:42:28.158Z,6.53
2023-02-13T06:44:54.632Z,8.32
2023-02-13T06:47:21.153Z,8.55
2023-02-13T06:49:47.676Z,8.70
2023-02-13T06:52:14.197Z,9.80
2023-02-13T06:54:47.178Z,8.27
2023-02-13T06:57:14.511Z,9.10
2023-02-13T06:59:41.070Z,10.63
2023-02-13T07:02:10.415Z,9.45
2023-02-13T07:04:36.886Z,9.27
2023-02-13T07:07:03.343Z,9.50
2023-02-13T07:09:31.174Z,8.93
2023-02-13T07:11:57.812Z,12.90
2023-02-13T07:14:24.574Z,8.98
2023-02-13T07:16:51.019Z,9.02
2023-02-13T07:19:17.611Z,9.95
2023-02-13T07:21:44.183Z,9.50
2023-02-13T07:24:10.704Z,9.10
2023-02-13T07:26:37.145Z,8.63
2023-02-13T07:29:11.631Z,7.82
2023-02-13T07:31:39.249Z,8.15
2023-02-13T07:34:05.930Z,9.02
2023-02-13T07:36:32.378Z,10.02
2023-02-13T07:38:58.965Z,13.60
2023-02-13T07:41:28.728Z,14.70
2023-02-13T07:43:55.215Z,13.73
2023-02-13T07:46:21.738Z,21.35
2023-02-13T07:48:48.427Z,16.33
2023-02-13T07:51:15.953Z,12.38
2023-02-13T07:53:42.439Z,14.98
2023-02-13T07:56:10.682Z,14.20
2023-02-13T07:58:37.924Z,12.48
2023-02-13T08:01:08.996Z,11.70
2023-02-13T08:03:35.605Z,10.88
2023-02-13T08:06:02.746Z,10.30
2023-02-13T08:08:29.402Z,10.48
2023-02-13T08:11:14.482Z,8.52
2023-02-13T08:13:41.626Z,9.73
2023-02-13T08:16:08.112Z,9.90
2023-02-13T08:18:34.809Z,10.13
2023-02-13T08:21:04.510Z,9.07
2023-02-13T08:23:31.123Z,10.07
2023-02-13T08:26:03.344Z,10.45
2023-02-13T08:28:30.020Z,10.75
2023-02-13T08:30:56.638Z,8.20
2023-02-13T08:33:23.358Z,10.00
2023-02-13T08:35:49.836Z,9.85
2023-02-13T08:38:16.404Z,9.48
2023-02-13T08:40:42.935Z,9.48
2023-02-13T08:43:09.475Z,10.35
2023-02-13T08:45:36.864Z,7.70
2023-02-13T08:48:07.561Z,9.07
2023-02-13T08:50:36.284Z,9.35
2023-02-13T08:53:03.876Z,9.50
2023-02-13T08:55:31.539Z,8.68
2023-02-13T08:58:05.226Z,8.50
2023-02-13T09:00:31.953Z,9.85
2023-02-13T09:03:02.741Z,8.80
2023-02-13T09:05:31.634Z,9.82
2023-02-13T09:08:03.632Z,8.98
2023-02-13T09:10:31.890Z,8.18
2023-02-13T09:12:58.798Z,9.38
2023-02-13T09:15:25.325Z,8.50
2023-02-13T09:17:51.798Z,9.23
2023-02-13T09:20:18.547Z,8.98
2023-02-13T09:22:45.009Z,8.30
2023-02-13T09:25:11.522Z,8.50
2023-02-13T09:27:39.367Z,9.52
2023-02-13T09:30:09.992Z,7.93
2023-02-13T09:32:37.727Z,8.27
2023-02-13T09:35:06.542Z,7.93
2023-02-13T09:37:33.093Z,8.40
2023-02-13T09:39:59.572Z,7.00
2023-02-13T09:42:30.265Z,9.18
2023-02-13T09:45:01.631Z,9.80
2023-02-13T09:47:41.669Z,8.43
2023-02-13T09:50:18.778Z,8.20
2023-02-13T09:52:46.667Z,6.80
2023-02-13T09:55:21.780Z,7.40
2023-02-13T09:58:16.230Z,8.50
2023-02-13T10:00:46.195Z,9.45
2023-02-13T10:03:21.645Z,9.70
2023-02-13T10:06:04.854Z,5.82
2023-02-13T10:08:43.339Z,8.50
2023-02-13T10:11:47.019Z,8.65
2023-02-13T10:14:21.956Z,7.57
2023-02-13T10:16:59.043Z,7.75
2023-02-13T10:19:36.232Z,7.70
2023-02-13T10:22:14.108Z,8.05
2023-02-13T10:24:54.200Z,8.27
2023-02-13T10:27:24.871Z,8.48
2023-02-13T10:30:07.094Z,9.13
2023-02-13T10:33:21.501Z,7.93
2023-02-13T10:36:02.658Z,8.40
2023-02-13T10:38:35.734Z,8.05
2023-02-13T10:41:19.702Z,8.40
2023-02-13T10:44:10.988Z,8.32
2023-02-13T10:46:51.658Z,8.30
2023-02-13T10:49:42.529Z,8.13
2023-02-13T10:52:22.957Z,7.80
2023-02-13T10:55:09.995Z,7.40
2023-02-13T10:58:01.947Z,8.30
2023-02-13T11:00:59.206Z,9.38
2023-02-13T11:03:28.368Z,8.95
2023-02-13T11:05:57.471Z,8.35
2023-02-13T11:08:30.923Z,8.32
2023-02-13T11:10:57.401Z,8.10
2023-02-13T11:13:30.004Z,9.40
2023-02-13T11:16:04.530Z,9.07
2023-02-13T11:18:44.269Z,7.90
2023-02-13T11:21:21.839Z,8.00
2023-02-13T11:23:54.922Z,8.25
2023-02-13T11:26:35.891Z,6.70
2023-02-13T11:29:44.600Z,7.75
2023-02-13T11:32:14.230Z,8.27
2023-02-13T11:34:41.526Z,8.32
2023-02-13T11:37:29.498Z,8.45
2023-02-13T11:39:58.975Z,9.18
2023-02-13T11:42:28.412Z,8.10
2023-02-13T11:45:08.236Z,8.82
2023-02-13T11:47:41.101Z,7.68
2023-02-13T11:50:26.627Z,7.85
2023-02-13T11:52:58.621Z,9.30
2023-02-13T11:55:34.387Z,8.07
2023-02-13T11:58:04.692Z,8.63
2023-02-13T12:00:49.441Z,7.22
2023-02-13T12:03:21.798Z,8.70
2023-02-13T12:06:14.300Z,8.90
2023-02-13T12:08:44.111Z,8.52
2023-02-13T12:11:33.565Z,7.55
2023-02-13T12:14:00.390Z,8.15
2023-02-13T12:16:36.501Z,7.32
2023-02-13T12:19:28.558Z,7.65
2023-02-13T12:22:09.823Z,7.47
2023-02-13T12:25:05.156Z,7.68
2023-02-13T12:27:54.625Z,6.93
2023-02-13T12:30:39.366Z,7.40
2023-02-13T12:33:54.198Z,7.13
2023-02-13T12:36:48.775Z,7.75
2023-02-13T12:39:23.827Z,7.03
2023-02-13T12:44:50.484Z,8.52
2023-02-13T12:47:21.957Z,8.07
2023-02-13T12:50:07.140Z,7.90
2023-02-13T12:52:52.894Z,8.45
2023-02-13T12:55:24.867Z,8.02
2023-02-13T12:58:09.415Z,7.70
2023-02-13T13:01:07.444Z,8.27
2023-02-13T13:03:49.563Z,8.23
2023-02-13T13:06:21.461Z,7.00
2023-02-13T13:08:56.870Z,7.97
2023-02-13T13:11:29.723Z,7.78
2023-02-13T13:14:02.405Z,8.13
2023-02-13T13:16:54.758Z,7.43
2023-02-13T13:19:38.652Z,7.70
2023-02-13T13:22:13.622Z,7.57
2023-02-13T13:25:16.702Z,7.43
2023-02-13T13:27:46.750Z,8.07
2023-02-13T13:30:13.243Z,8.23
2023-02-13T13:32:41.765Z,7.70
2023-02-13T13:35:15.061Z,7.95
2023-02-13T13:38:35.512Z,7.32
2023-02-13T13:41:14.940Z,7.35
2023-02-13T13:43:53.310Z,8.02
2023-02-13T13:46:50.745Z,7.55
2023-02-13T13:49:44.691Z,7.20
2023-02-13T13:52:19.387Z,7.45
2023-02-13T13:54:51.489Z,7.47
2023-02-13T13:57:20.537Z,7.47
2023-02-13T13:59:53.852Z,7.32
2023-02-13T14:02:20.269Z,7.60
2023-02-13T14:05:24.498Z,7.00
2023-02-13T14:08:04.111Z,7.68
2023-02-13T14:10:30.610Z,7.57
2023-02-13T14:12:57.063Z,7.20
2023-02-13T14:15:38.652Z,7.18
2023-02-13T14:18:08.064Z,7.45
2023-02-13T14:20:44.173Z,7.32
2023-02-13T14:23:19.653Z,6.88
2023-02-13T14:25:47.279Z,6.93
2023-02-13T14:28:40.903Z,7.50
2023-02-13T14:31:14.961Z,6.88
2023-02-13T14:33:41.695Z,6.93
2023-02-13T14:36:20.296Z,6.78
2023-02-13T14:38:57.098Z,6.70
2023-02-13T14:41:51.570Z,6.93
2023-02-13T14:44:47.248Z,6.20
2023-02-13T14:49:41.190Z,6.18
2023-02-13T14:52:18.002Z,8.30
2023-02-13T14:54:51.427Z,6.88
2023-02-13T14:57:21.662Z,7.25
2023-02-13T14:59:53.055Z,6.75
2023-02-13T15:02:29.597Z,6.72
2023-02-13T15:05:01.773Z,6.57
2023-02-13T15:07:45.266Z,6.55
2023-02-13T15:10:23.534Z,7.28
2023-02-13T15:13:00.387Z,6.75
2023-02-13T15:15:36.805Z,7.43
2023-02-13T15:18:20.744Z,6.82
2023-02-13T15:20:47.754Z,6.97
2023-02-13T15:23:26.606Z,6.45
2023-02-13T15:26:07.076Z,6.80
2023-02-13T15:28:35.202Z,8.05
2023-02-13T15:31:06.916Z,6.95
2023-02-13T15:33:35.050Z,7.10
2023-02-13T15:36:05.711Z,7.75
2023-02-13T15:38:36.810Z,7.53
2023-02-13T15:41:03.308Z,7.25
2023-02-13T15:43:36.655Z,9.23
2023-02-13T15:46:34.275Z,6.55
2023-02-13T15:49:16.666Z,7.85
2023-02-13T15:51:44.532Z,6.80
2023-02-13T15:54:23.205Z,7.68
2023-02-13T15:56:51.724Z,7.60
2023-02-13T15:59:19.654Z,7.75
2023-02-13T16:01:46.916Z,8.10
2023-02-13T16:04:16.211Z,7.95
2023-02-13T16:06:44.816Z,9.07
2023-02-13T16:09:33.969Z,8.35
2023-02-13T16:12:07.215Z,7.28
2023-02-13T16:14:47.106Z,7.82
2023-02-13T16:17:25.851Z,8.68
2023-02-13T16:20:00.904Z,8.65
2023-02-13T16:22:43.119Z,7.50
2023-02-13T16:25:12.594Z,8.48
2023-02-13T16:27:43.286Z,8.15
2023-02-13T16:30:33.835Z,8.27
2023-02-13T16:33:15.475Z,8.27
2023-02-13T16:35:46.006Z,8.43
2023-02-13T16:38:30.998Z,7.93
2023-02-13T16:41:18.928Z,8.55
2023-02-13T16:43:46.998Z,7.78
2023-02-13T16:46:17.795Z,7.97
2023-02-13T16:48:56.668Z,8.27
2023-02-13T16:51:43.681Z,10.13
2023-02-13T16:54:28.617Z,10.10
2023-02-13T16:57:21.404Z,15.85
2023-02-13T16:59:47.839Z,14.23
2023-02-13T17:02:21.893Z,10.15
2023-02-13T17:04:49.730Z,9.38
2023-02-13T17:07:28.412Z,8.50
2023-02-13T17:10:04.705Z,8.75
2023-02-13T17:12:35.539Z,8.45
2023-02-13T17:15:02.354Z,7.93
2023-02-13T17:17:31.575Z,14.48
2023-02-13T17:19:59.165Z,21.35
2023-02-13T17:22:30.240Z,22.23
2023-02-13T17:24:58.038Z,17.08
2023-02-13T17:27:24.549Z,12.00
2023-02-13T17:29:51.146Z,11.07
2023-02-13T17:32:24.168Z,8.93
2023-02-13T17:34:50.752Z,9.32
2023-02-13T17:37:22.681Z,9.38
2023-02-13T17:39:49.998Z,8.25
2023-02-13T17:42:27.989Z,9.43
2023-02-13T17:44:56.494Z,8.65
2023-02-13T17:47:24.650Z,8.35
2023-02-13T17:49:55.161Z,8.23
2023-02-13T17:52:31.126Z,9.40
2023-02-13T17:54:57.584Z,9.40
2023-02-13T17:57:24.076Z,9.07
2023-02-13T17:59:50.663Z,8.57
2023-02-13T18:02:20.083Z,7.65
2023-02-13T18:04:47.785Z,7.82
2023-02-13T18:07:20.041Z,8.35
2023-02-13T18:09:47.007Z,7.47
2023-02-13T18:12:22.870Z,7.85
2023-02-13T18:14:51.378Z,9.10
2023-02-13T18:17:18.814Z,7.50
2023-02-13T18:19:45.876Z,8.05
2023-02-13T18:22:13.008Z,8.50
2023-02-13T18:24:42.404Z,7.97
2023-02-13T18:27:11.299Z,7.90
2023-02-13T18:29:38.247Z,8.23
2023-02-13T18:32:10.203Z,7.95
2023-02-13T18:34:37.828Z,8.25
2023-02-13T18:37:05.542Z,8.45
2023-02-13T18:39:32.687Z,11.32
2023-02-13T18:41:59.314Z,13.73
2023-02-13T18:44:28.631Z,12.65
2023-02-13T18:46:55.313Z,10.73
2023-02-13T18:49:21.886Z,10.43
2023-02-13T18:51:48.435Z,10.38
2023-02-13T18:54:14.992Z,10.77
2023-02-13T18:56:41.510Z,11.10
2023-02-13T18:59:08.033Z,8.52
2023-02-13T19:01:35.422Z,9.50
2023-02-13T19:04:03.315Z,8.90
2023-02-13T19:06:30.724Z,9.25
2023-02-13T19:08:57.641Z,7.60
2023-02-13T19:11:26.403Z,7.32
2023-02-13T19:13:55.120Z,8.32
2023-02-13T19:16:22.449Z,10.15
2023-02-13T19:18:53.200Z,10.07
2023-02-13T19:21:22.161Z,11.75
2023-02-13T19:23:49.552Z,10.93
2023-02-13T19:26:18.785Z,9.90
2023-02-13T19:28:45.260Z,9.40
2023-02-13T19:31:18.650Z,8.82
2023-02-13T19:33:45.388Z,9.30
2023-02-13T19:36:15.028Z,8.45
2023-02-13T19:38:43.367Z,9.55
2023-02-13T19:41:16.038Z,9.68
2023-02-13T19:43:50.685Z,8.95
2023-02-13T19:46:23.436Z,8.75
2023-02-13T19:48:50.440Z,11.38
2023-02-13T19:51:28.207Z,10.23
2023-02-13T19:54:00.433Z,10.88
2023-02-13T19:56:28.564Z,11.55
2023-02-13T19:58:55.326Z,11.40
2023-02-13T20:01:23.846Z,12.15
2023-02-13T20:03:50.693Z,15.48
2023-02-13T20:06:22.966Z,15.48
2023-02-13T20:08:50.212Z,16.55
2023-02-13T20:11:18.569Z,15.43
2023-02-13T20:13:45.106Z,13.15
2023-02-13T20:16:14.137Z,14.20
2023-02-13T20:18:41.181Z,13.50
2023-02-13T20:21:09.180Z,10.35
2023-02-13T20:23:35.931Z,11.07
2023-02-13T20:26:20.509Z,9.63
2023-02-13T20:28:48.009Z,14.70
2023-02-13T20:31:22.008Z,15.13
2023-02-13T20:33:51.020Z,13.20
2023-02-13T20:36:29.143Z,12.57
2023-02-13T20:39:01.433Z,13.38
2023-02-13T20:41:30.942Z,14.48
2023-02-13T20:43:59.292Z,11.45
2023-02-13T20:46:26.037Z,11.93
2023-02-13T20:48:52.529Z,11.27
2023-02-13T20:51:19.094Z,12.23
2023-02-13T20:53:46.584Z,12.55
2023-02-13T20:56:14.332Z,12.02
2023-02-13T20:58:44.624Z,17.52
2023-02-13T21:01:21.023Z,23.98
2023-02-13T21:03:53.443Z,26.50
2023-02-13T21:06:31.372Z,23.65
2023-02-13T21:08:58.497Z,21.08
2023-02-13T21:11:26.289Z,22.63
2023-02-13T21:13:52.819Z,28.75
2023-02-13T21:16:24.992Z,18.42
2023-02-13T21:18:54.244Z,23.58
2023-02-13T21:21:22.549Z,18.58
2023-02-13T21:23:52.879Z,17.30
2023-02-13T21:26:19.469Z,13.15
2023-02-13T21:28:48.446Z,12.93
2023-02-13T21:31:23.706Z,15.70
2023-02-13T21:33:50.295Z,15.90
2023-02-13T21:36:16.769Z,14.07
2023-02-13T21:38:43.521Z,12.48
2023-02-13T21:41:14.413Z,12.30
2023-02-13T21:43:46.391Z,13.20
2023-02-13T21:46:18.861Z,17.52
2023-02-13T21:48:47.300Z,18.83
2023-02-13T21:51:19.526Z,19.75
2023-02-13T21:53:49.277Z,14.85
2023-02-13T21:56:19.176Z,21.02
2023-02-13T21:58:46.374Z,19.90
2023-02-13T22:01:25.577Z,19.85
2023-02-13T22:03:56.409Z,19.30
2023-02-13T22:06:24.916Z,16.17
2023-02-13T22:08:58.873Z,15.85
2023-02-13T22:11:25.976Z,16.40
2023-02-13T22:13:57.117Z,15.10
2023-02-13T22:16:24.043Z,15.82
2023-02-13T22:18:52.719Z,14.50
2023-02-13T22:21:21.786Z,13.88
2023-02-13T22:23:51.201Z,12.38
2023-02-13T22:26:24.241Z,12.30
2023-02-13T22:28:51.763Z,12.48
2023-02-13T22:31:19.805Z,12.70
2023-02-13T22:33:52.304Z,12.60
2023-02-13T22:36:25.340Z,11.25
2023-02-13T22:38:52.383Z,13.10
2023-02-13T22:41:24.272Z,11.77
2023-02-13T22:43:51.473Z,12.73
2023-02-13T22:46:26.044Z,13.10
2023-02-13T22:48:53.453Z,11.45
2023-02-13T22:51:22.561Z,12.65
2023-02-13T22:53:49.367Z,12.50
2023-02-13T22:56:15.905Z,12.10
2023-02-13T22:58:42.369Z,13.52
2023-02-13T23:01:13.761Z,11.50
2023-02-13T23:03:41.069Z,13.32
2023-02-13T23:06:09.088Z,12.13
2023-02-13T23:08:36.196Z,11.75
2023-02-13T23:11:26.735Z,12.35
2023-02-13T23:13:53.298Z,12.93
2023-02-13T23:16:19.942Z,12.55
2023-02-13T23:18:57.357Z,12.63
2023-02-13T23:21:25.438Z,11.82
2023-02-13T23:23:52.409Z,13.23
2023-02-13T23:26:19.466Z,13.38
2023-02-13T23:28:45.985Z,12.90
2023-02-13T23:31:12.592Z,13.35
2023-02-13T23:33:39.104Z,12.05
2023-02-13T23:36:06.046Z,13.38
2023-02-13T23:38:32.504Z,12.98
2023-02-13T23:41:07.056Z,14.15
2023-02-13T23:43:33.613Z,12.63
2023-02-13T23:46:03.819Z,12.55
2023-02-13T23:48:33.318Z,13.82
2023-02-13T23:51:01.032Z,15.57
2023-02-13T23:53:27.731Z,19.00
2023-02-13T23:55:55.005Z,23.08
2023-02-13T23:58:21.766Z,20.35
